Time;durP1;ratioP1;P1;durP2;ratioP2;P2;SDS_P1;SDS_P2;PMS_P1;PMS_P2;Temp;Humidity;BMP_temperature;BMP_pressure;BME280_temperature;BME280_humidity;BME280_pressure;Samples;Min_cycle;Max_cycle;Signal;HPM_P1;HPM_P2
2023/09/12 00:01:10;;;;;;;10.07;9.18;;;;;;;23.65;67.01;95159.47;5029723;28;20293;-86
2023/09/12 00:03:37;;;;;;;10.38;9.38;;;;;;;23.62;66.86;95158.16;5043826;28;20198;-85
2023/09/12 00:06:04;;;;;;;9.95;9.05;;;;;;;23.63;67.09;95149.22;5039621;28;20230;-86
2023/09/12 00:08:31;;;;;;;8.70;8.05;;;;;;;23.67;66.96;95147.59;5028971;28;20781;-86
2023/09/12 00:11:10;;;;;;;9.20;8.40;;;;;;;23.68;66.86;95129.97;5029687;28;20230;-85
2023/09/12 00:13:37;;;;;;;9.38;8.68;;;;;;;23.62;66.50;95131.88;5029399;28;20198;-86
2023/09/12 00:16:05;;;;;;;9.30;8.57;;;;;;;23.68;66.33;95115.00;5029261;28;20222;-85
2023/09/12 00:18:31;;;;;;;9.50;8.63;;;;;;;23.60;66.62;95128.72;5032524;28;20198;-85
2023/09/12 00:21:00;;;;;;;9.55;8.85;;;;;;;23.58;66.61;95128.19;5049472;28;20197;-86
2023/09/12 00:23:27;;;;;;;10.27;8.43;;;;;;;23.65;66.10;95109.53;5048985;28;20265;-86
2023/09/12 00:25:53;;;;;;;9.70;8.80;;;;;;;23.67;65.93;95107.38;5037050;28;20209;-86
2023/09/12 00:28:22;;;;;;;9.07;8.27;;;;;;;23.68;65.90;95090.56;5029450;28;20206;-87
2023/09/12 00:30:49;;;;;;;9.07;8.32;;;;;;;23.66;65.79;95082.19;5023491;28;20762;-86
2023/09/12 00:33:16;;;;;;;9.30;8.48;;;;;;;23.59;65.58;95089.56;5026686;28;20209;-85
2023/09/12 00:35:42;;;;;;;9.23;8.52;;;;;;;23.51;65.91;95103.22;5042134;28;20213;-86
2023/09/12 00:38:09;;;;;;;8.73;8.02;;;;;;;23.49;66.14;95105.31;5048769;28;20706;-85
2023/09/12 00:40:37;;;;;;;8.88;8.02;;;;;;;23.50;66.21;95099.81;5049172;28;20208;-85
2023/09/12 00:43:04;;;;;;;9.10;8.40;;;;;;;23.60;66.13;95089.28;5038504;28;20234;-85
2023/09/12 00:45:32;;;;;;;9.15;8.45;;;;;;;23.56;65.72;95075.13;5028876;28;20205;-85
2023/09/12 00:47:59;;;;;;;9.05;8.15;;;;;;;23.58;65.35;95072.22;5028767;28;20226;-85
2023/09/12 00:50:27;;;;;;;8.75;7.97;;;;;;;23.55;65.76;95078.00;5029869;28;20226;-85
2023/09/12 00:52:54;;;;;;;9.50;8.70;;;;;;;23.22;66.95;95113.56;5048018;28;20220;-85
2023/09/12 00:55:21;;;;;;;9.35;8.52;;;;;;;22.95;67.82;95140.13;5044897;28;20198;-85
2023/09/12 00:57:48;;;;;;;8.18;7.47;;;;;;;22.87;68.48;95154.59;5017690;28;20242;-86
2023/09/12 01:00:15;;;;;;;8.68;7.97;;;;;;;22.90;68.60;95156.69;5028601;28;20206;-85
2023/09/12 01:02:46;;;;;;;8.77;8.07;;;;;;;22.90;68.45;95158.56;5029244;28;20208;-86
2023/09/12 01:05:15;;;;;;;8.82;8.15;;;;;;;22.95;68.34;95150.66;5029527;28;20213;-86
2023/09/12 01:07:44;;;;;;;9.00;8.23;;;;;;;22.94;68.50;95151.69;5038740;28;20248;-86
2023/09/12 01:10:10;;;;;;;8.65;8.00;;;;;;;22.89;68.86;95162.22;5032307;28;20227;-85
2023/09/12 01:12:37;;;;;;;8.90;8.20;;;;;;;22.75;69.69;95175.03;5028115;28;20210;-85
2023/09/12 01:15:08;;;;;;;9.20;8.50;;;;;;;22.70;69.66;95177.69;5028833;28;20218;-85
2023/09/12 01:17:35;;;;;;;9.10;8.40;;;;;;;22.61;70.00;95180.03;5027626;28;20222;-85
2023/09/12 01:20:07;;;;;;;8.90;8.10;;;;;;;22.68;69.63;95175.31;5027572;28;20608;-86
2023/09/12 01:22:51;;;;;;;9.05;8.25;;;;;;;22.56;70.02;95190.50;5028470;28;20205;-85
2023/09/12 01:25:46;;;;;;;9.40;8.60;;;;;;;22.55;70.32;95188.94;5040300;28;20203;-86
2023/09/12 01:28:18;;;;;;;8.57;7.88;;;;;;;22.52;70.60;95202.56;5020385;28;20198;-85
2023/09/12 01:30:49;;;;;;;8.52;7.93;;;;;;;22.49;70.32;95197.88;5028142;28;20229;-86
2023/09/12 01:33:16;;;;;;;9.20;8.50;;;;;;;22.39;70.68;95211.75;5028424;28;20202;-83
2023/09/12 01:35:43;;;;;;;8.95;7.88;;;;;;;22.20;71.69;95226.38;5028475;28;20202;-83
2023/09/12 01:38:10;;;;;;;8.43;7.82;;;;;;;22.04;72.59;95240.50;5028349;28;20198;-86
2023/09/12 01:40:43;;;;;;;8.40;7.70;;;;;;;22.14;72.46;95239.72;5043865;28;20236;-86
2023/09/12 01:43:10;;;;;;;8.27;7.68;;;;;;;22.21;72.05;95240.28;5037151;28;20540;-86
2023/09/12 01:45:38;;;;;;;8.80;8.10;;;;;;;22.30;71.46;95223.00;5028443;28;20563;-85
2023/09/12 01:48:07;;;;;;;9.05;8.25;;;;;;;22.35;71.01;95217.75;5028362;28;20222;-85
2023/09/12 01:50:34;;;;;;;9.15;8.35;;;;;;;22.35;71.21;95215.13;5027996;28;20695;-86
2023/09/12 01:53:01;;;;;;;9.25;8.15;;;;;;;22.39;70.75;95210.97;5027928;28;20202;-86
2023/09/12 01:55:28;;;;;;;8.63;7.80;;;;;;;22.42;70.26;95202.56;5033390;28;20654;-85
2023/09/12 01:57:55;;;;;;;8.82;7.97;;;;;;;22.42;70.23;95201.78;5047744;28;20606;-85
2023/09/12 02:00:22;;;;;;;9.75;8.73;;;;;;;22.45;69.74;95198.66;5048151;28;20193;-85
2023/09/12 02:02:51;;;;;;;8.82;8.02;;;;;;;22.47;69.65;95192.09;5043875;28;20575;-85
2023/09/12 02:05:21;;;;;;;9.27;8.57;;;;;;;22.44;69.69;95187.34;5027806;28;20567;-85
2023/09/12 02:07:47;;;;;;;9.35;8.05;;;;;;;22.39;69.83;95201.25;5027993;28;20229;-85
2023/09/12 02:10:14;;;;;;;9.45;8.55;;;;;;;22.39;69.95;95203.88;5028367;28;20208;-86
2023/09/12 02:12:41;;;;;;;9.20;8.40;;;;;;;22.40;70.14;95213.31;5042264;28;20209;-85
2023/09/12 02:15:09;;;;;;;10.25;9.15;;;;;;;22.38;69.67;95204.13;5048189;28;20197;-86
2023/09/12 02:17:35;;;;;;;10.40;9.40;;;;;;;22.44;69.20;95197.06;5047486;28;20942;-86
2023/09/12 02:20:04;;;;;;;9.88;8.43;;;;;;;22.35;69.62;95197.56;5047885;28;20297;-86
2023/09/12 02:22:31;;;;;;;9.32;8.50;;;;;;;22.42;69.16;95186.81;5032726;28;20667;-85
2023/09/12 02:24:57;;;;;;;9.68;8.88;;;;;;;22.41;68.95;95187.88;5022770;28;20209;-86
2023/09/12 02:27:24;;;;;;;9.27;8.48;;;;;;;22.35;69.22;95187.06;5030014;28;20240;-85
2023/09/12 02:29:50;;;;;;;9.27;8.48;;;;;;;22.38;69.10;95189.19;5047409;28;20240;-85
2023/09/12 02:32:17;;;;;;;9.10;8.30;;;;;;;22.34;69.20;95184.69;5051484;28;20228;-86
2023/09/12 02:34:43;;;;;;;8.60;7.90;;;;;;;22.28;69.17;95191.00;5051101;28;20213;-85
2023/09/12 02:37:11;;;;;;;8.52;7.72;;;;;;;22.33;69.00;95186.53;5051203;28;20738;-85
2023/09/12 02:39:37;;;;;;;9.05;8.23;;;;;;;22.29;68.71;95182.09;5051304;28;20221;-85
2023/09/12 02:42:04;;;;;;;8.93;8.13;;;;;;;22.24;68.92;95187.31;5048893;28;20226;-86
2023/09/12 02:44:33;;;;;;;8.75;7.95;;;;;;;22.10;69.38;95197.53;5041281;28;20578;-86
2023/09/12 02:46:59;;;;;;;8.60;7.78;;;;;;;22.09;69.62;95203.03;5051394;28;20674;-86
2023/09/12 02:49:25;;;;;;;8.27;7.57;;;;;;;22.10;69.56;95209.84;5034095;28;20202;-85
2023/09/12 02:51:52;;;;;;;8.30;7.70;;;;;;;22.19;69.13;95184.69;5031387;28;20224;-86
2023/09/12 02:54:19;;;;;;;8.75;7.97;;;;;;;22.20;68.97;95188.88;5031408;28;20229;-85
2023/09/12 02:56:46;;;;;;;8.63;7.82;;;;;;;22.18;68.79;95177.84;5030929;28;20739;-86
2023/09/12 02:59:12;;;;;;;8.95;8.25;;;;;;;22.16;69.14;95193.06;5029928;28;20206;-85
2023/09/12 03:01:41;;;;;;;8.20;7.50;;;;;;;22.23;68.78;95173.41;5046673;28;20198;-86
2023/09/12 03:04:07;;;;;;;9.05;8.15;;;;;;;22.27;68.46;95168.44;5035712;28;20213;-86
2023/09/12 03:06:34;;;;;;;8.75;7.95;;;;;;;22.23;68.09;95157.69;5030564;28;20245;-86
2023/09/12 03:09:00;;;;;;;8.40;7.70;;;;;;;22.16;68.71;95177.31;5030708;28;20202;-85
2023/09/12 03:11:29;;;;;;;9.02;8.20;;;;;;;21.96;69.71;95199.78;5030863;28;20579;-85
2023/09/12 03:13:56;;;;;;;8.77;8.07;;;;;;;21.90;69.88;95210.53;5030826;28;20309;-85
2023/09/12 03:16:23;;;;;;;8.60;7.90;;;;;;;21.93;70.17;95202.94;5037776;28;20306;-85
2023/09/12 03:18:50;;;;;;;9.10;8.40;;;;;;;21.92;69.78;95201.38;5037189;28;20202;-85
2023/09/12 03:21:16;;;;;;;8.98;8.27;;;;;;;21.92;69.79;95195.34;5022655;28;20198;-85
2023/09/12 03:23:43;;;;;;;9.27;8.48;;;;;;;21.77;70.40;95224.06;5030359;28;20579;-85
2023/09/12 03:26:09;;;;;;;9.57;8.77;;;;;;;21.70;71.03;95235.59;5030151;28;20214;-86
2023/09/12 03:28:37;;;;;;;9.70;8.80;;;;;;;21.62;71.30;95241.31;5030985;28;20209;-86
2023/09/12 03:31:05;;;;;;;9.68;8.85;;;;;;;21.63;71.22;95248.13;5031111;28;20442;-85
2023/09/12 03:33:31;;;;;;;8.68;7.97;;;;;;;21.75;71.03;95240.06;5045432;28;20197;-84
2023/09/12 03:35:58;;;;;;;8.38;7.78;;;;;;;21.66;71.13;95239.75;5050612;28;20205;-86
2023/09/12 03:38:24;;;;;;;9.07;8.27;;;;;;;21.63;71.35;95236.84;5050513;28;20194;-86
2023/09/12 03:40:50;;;;;;;8.82;8.13;;;;;;;21.69;71.06;95231.41;5050094;28;20217;-86
2023/09/12 03:43:17;;;;;;;9.25;8.45;;;;;;;21.65;70.94;95230.31;5037176;28;20206;-85
2023/09/12 03:45:45;;;;;;;9.23;8.45;;;;;;;21.55;71.29;95238.13;5030527;28;20208;-86
2023/09/12 03:48:11;;;;;;;9.32;8.13;;;;;;;21.61;71.11;95239.72;4994722;28;20617;-86
2023/09/12 03:50:38;;;;;;;8.93;8.20;;;;;;;21.69;70.66;95231.41;5049260;28;20213;-85
2023/09/12 03:53:04;;;;;;;8.93;8.13;;;;;;;21.81;70.54;95219.91;5049686;28;20212;-85
2023/09/12 03:55:30;;;;;;;8.80;7.85;;;;;;;21.82;70.27;95211.00;5050063;28;20204;-86
2023/09/12 03:57:57;;;;;;;8.50;7.80;;;;;;;21.82;70.14;95197.91;5049599;28;20221;-85
2023/09/12 04:00:23;;;;;;;8.35;7.65;;;;;;;21.79;70.15;95207.06;5050265;28;20209;-86
2023/09/12 04:02:52;;;;;;;8.98;8.18;;;;;;;21.76;70.22;95212.00;5045711;28;20195;-86
2023/09/12 04:05:18;;;;;;;8.40;7.55;;;;;;;21.83;70.05;95202.88;5041019;28;20205;-85
2023/09/12 04:07:45;;;;;;;8.30;7.68;;;;;;;21.78;69.93;95208.09;5049906;28;20225;-86
2023/09/12 04:10:12;;;;;;;8.68;7.82;;;;;;;21.76;70.19;95212.81;5033027;28;20208;-86
2023/09/12 04:12:38;;;;;;;8.43;7.78;;;;;;;21.76;70.15;95212.81;5029158;28;20226;-85
2023/09/12 04:15:06;;;;;;;9.20;8.40;;;;;;;21.73;70.14;95218.59;5029390;28;20210;-85
2023/09/12 04:17:32;;;;;;;9.05;8.25;;;;;;;21.77;70.13;95210.97;5020679;28;20661;-85
2023/09/12 04:20:00;;;;;;;9.02;8.32;;;;;;;21.70;70.27;95224.31;5028949;28;20296;-85
2023/09/12 04:22:28;;;;;;;8.95;7.88;;;;;;;21.62;70.46;95235.28;5049017;28;20198;-85
2023/09/12 04:24:54;;;;;;;9.77;8.98;;;;;;;21.48;71.26;95252.50;5045028;28;20200;-86
2023/09/12 04:27:21;;;;;;;9.43;8.38;;;;;;;21.48;71.65;95255.91;5029266;28;20722;-86
2023/09/12 04:29:47;;;;;;;8.82;8.13;;;;;;;21.46;71.42;95259.81;5029273;28;20206;-85
2023/09/12 04:32:14;;;;;;;8.40;7.63;;;;;;;21.57;70.88;95253.59;5029308;28;20230;-85
2023/09/12 04:34:43;;;;;;;9.13;8.38;;;;;;;21.63;70.56;95235.03;5028664;28;20272;-85
2023/09/12 04:37:11;;;;;;;8.82;8.00;;;;;;;21.64;70.38;95230.56;5037737;28;20232;-85
2023/09/12 04:39:37;;;;;;;8.88;7.95;;;;;;;21.63;70.10;95219.31;5049195;28;20206;-85
2023/09/12 04:42:05;;;;;;;8.20;7.50;;;;;;;21.62;70.20;95225.59;5031002;28;20228;-85
2023/09/12 04:44:35;;;;;;;8.43;7.72;;;;;;;21.65;70.03;95225.09;5007913;28;20714;-85
2023/09/12 04:47:02;;;;;;;8.80;8.10;;;;;;;21.63;70.04;95221.13;5028933;28;20226;-85
2023/09/12 04:49:29;;;;;;;8.55;7.72;;;;;;;21.53;69.99;95216.66;5028779;28;20260;-85
2023/09/12 04:51:55;;;;;;;8.48;7.82;;;;;;;21.45;70.26;95229.41;5028018;28;20233;-86
2023/09/12 04:54:23;;;;;;;9.50;7.63;;;;;;;21.47;70.53;95233.38;5046449;28;20202;-85
2023/09/12 04:56:49;;;;;;;8.93;8.18;;;;;;;21.51;70.32;95226.59;5048745;28;20367;-86
2023/09/12 04:59:16;;;;;;;8.88;8.10;;;;;;;21.45;70.56;95221.56;5048753;28;20201;-85
2023/09/12 05:01:42;;;;;;;9.25;8.40;;;;;;;21.46;70.08;95229.16;5032772;28;20194;-85
2023/09/12 05:04:09;;;;;;;11.30;8.98;;;;;;;21.43;70.68;95237.53;5028376;28;20202;-85
2023/09/12 05:06:35;;;;;;;9.70;8.65;;;;;;;21.49;70.25;95238.34;5028524;28;20245;-86
2023/09/12 05:09:03;;;;;;;9.07;8.27;;;;;;;21.44;71.09;95244.34;5033381;28;20224;-85
2023/09/12 05:11:30;;;;;;;9.02;8.23;;;;;;;21.45;70.88;95251.16;5032313;28;20226;-86
2023/09/12 05:13:57;;;;;;;30.73;27.73;;;;;;;21.45;70.76;95248.53;5023237;28;20197;-86
2023/09/12 05:16:23;;;;;;;18.13;16.33;;;;;;;21.50;70.80;95248.59;5028899;28;20225;-86
2023/09/12 05:18:50;;;;;;;16.20;14.50;;;;;;;21.45;71.40;95268.72;5027899;28;20679;-86
2023/09/12 05:21:17;;;;;;;11.65;9.77;;;;;;;21.43;71.83;95276.03;5028542;28;20198;-85
2023/09/12 05:23:43;;;;;;;10.23;9.23;;;;;;;21.52;71.16;95266.69;5028436;28;20194;-85
2023/09/12 05:26:10;;;;;;;9.77;8.95;;;;;;;21.55;70.71;95263.56;5041277;28;20225;-85
2023/09/12 05:28:37;;;;;;;11.25;10.15;;;;;;;21.56;70.73;95265.09;5048530;28;20232;-85
2023/09/12 05:31:04;;;;;;;11.40;9.88;;;;;;;21.61;70.49;95249.41;5048292;28;20212;-85
2023/09/12 05:33:30;;;;;;;9.73;8.90;;;;;;;21.65;70.67;95258.34;5047940;28;20212;-86
2023/09/12 05:35:57;;;;;;;9.98;8.98;;;;;;;21.65;70.62;95253.13;5048446;28;20292;-85
2023/09/12 05:38:23;;;;;;;10.48;9.18;;;;;;;21.69;70.38;95252.38;5029801;28;20198;-85
2023/09/12 05:40:50;;;;;;;12.07;9.57;;;;;;;21.71;70.22;95252.91;5029391;28;20247;-85
2023/09/12 05:43:17;;;;;;;13.32;8.65;;;;;;;21.76;70.58;95254.75;5042897;28;20202;-86
2023/09/12 05:45:45;;;;;;;8.98;8.27;;;;;;;21.87;70.01;95252.97;5048565;28;20620;-86
2023/09/12 05:48:11;;;;;;;9.40;8.57;;;;;;;21.90;70.40;95260.34;5050646;28;20225;-85
2023/09/12 05:50:38;;;;;;;10.07;9.02;;;;;;;21.95;69.97;95250.63;5050236;28;20206;-86
2023/09/12 05:53:18;;;;;;;9.52;8.73;;;;;;;22.00;69.72;95240.22;5048055;28;20574;-84
2023/09/12 05:55:45;;;;;;;9.35;8.55;;;;;;;22.09;69.55;95242.34;5048365;28;20368;-85
2023/09/12 05:58:12;;;;;;;9.75;8.93;;;;;;;22.16;69.07;95227.94;5044741;28;20225;-86
2023/09/12 06:00:38;;;;;;;9.70;8.70;;;;;;;22.20;68.96;95226.38;5041497;28;20202;-85
2023/09/12 06:03:06;;;;;;;9.75;8.82;;;;;;;22.30;68.74;95217.78;5028085;28;20206;-85
2023/09/12 06:05:33;;;;;;;9.43;8.50;;;;;;;22.35;68.43;95223.00;5028682;28;20213;-86
2023/09/12 06:07:59;;;;;;;10.65;8.35;;;;;;;22.37;68.25;95216.47;5025432;28;20222;-85
2023/09/12 06:10:26;;;;;;;9.60;8.80;;;;;;;22.43;68.17;95216.47;5012295;28;20203;-85
2023/09/12 06:12:52;;;;;;;9.70;8.88;;;;;;;22.52;68.33;95220.16;5014055;28;20612;-85
2023/09/12 06:15:19;;;;;;;10.05;9.05;;;;;;;22.61;68.20;95215.97;5051958;28;20214;-85
2023/09/12 06:17:45;;;;;;;9.95;9.15;;;;;;;22.66;67.96;95224.66;5051028;28;20748;-85
2023/09/12 06:20:13;;;;;;;9.45;8.63;;;;;;;22.75;67.66;95212.56;5052151;28;20577;-85
2023/09/12 06:22:39;;;;;;;11.10;8.68;;;;;;;22.84;67.21;95198.97;5051676;28;20193;-85
2023/09/12 06:25:07;;;;;;;9.73;8.80;;;;;;;22.93;66.94;95189.50;5045746;28;20209;-84
2023/09/12 06:27:33;;;;;;;10.95;8.88;;;;;;;23.02;66.89;95177.44;5032115;28;20321;-85
2023/09/12 06:29:59;;;;;;;9.95;8.95;;;;;;;23.12;66.31;95174.78;5035665;28;20220;-85
2023/09/12 06:32:26;;;;;;;9.50;8.40;;;;;;;23.16;65.71;95154.03;5050570;28;20229;-86
2023/09/12 06:34:53;;;;;;;13.73;9.15;;;;;;;23.30;65.37;95145.31;5031508;28;20209;-85
2023/09/12 06:37:20;;;;;;;8.82;8.07;;;;;;;23.34;65.02;95132.44;5031379;28;20236;-86
2023/09/12 06:39:50;;;;;;;8.40;7.70;;;;;;;23.40;64.95;95140.06;5031441;28;20206;-85
2023/09/12 06:42:16;;;;;;;9.07;8.20;;;;;;;23.50;65.09;95136.59;5031450;28;20556;-85
2023/09/12 06:44:43;;;;;;;9.90;8.82;;;;;;;23.61;64.54;95125.03;5031323;28;20194;-85
2023/09/12 06:47:10;;;;;;;9.52;8.63;;;;;;;23.73;64.48;95124.72;5046994;28;20225;-86
2023/09/12 06:49:37;;;;;;;9.50;8.70;;;;;;;23.87;64.29;95133.56;5051084;28;20213;-86
2023/09/12 06:52:04;;;;;;;9.43;8.63;;;;;;;23.99;63.91;95107.75;5050702;28;20598;-86
2023/09/12 06:54:33;;;;;;;9.52;8.55;;;;;;;24.15;63.49;95092.66;5050826;28;20223;-86
2023/09/12 06:57:00;;;;;;;11.75;8.35;;;;;;;24.32;63.28;95085.19;5051051;28;20231;-86
2023/09/12 06:59:26;;;;;;;9.35;8.18;;;;;;;24.46;62.49;95077.44;5051410;28;20209;-86
2023/09/12 07:01:52;;;;;;;9.30;8.18;;;;;;;24.60;62.65;95083.66;5038025;28;20205;-85
2023/09/12 07:04:19;;;;;;;10.32;8.32;;;;;;;24.74;61.27;95039.03;5034611;28;20213;-85
2023/09/12 07:06:45;;;;;;;9.80;8.45;;;;;;;24.95;60.53;95010.69;5023500;28;20230;-85
2023/09/12 07:09:14;;;;;;;9.85;8.90;;;;;;;25.02;60.31;95011.88;5022286;28;20198;-86
2023/09/12 07:11:42;;;;;;;10.07;8.85;;;;;;;25.20;60.02;94993.78;5011081;28;20588;-86
2023/09/12 07:14:09;;;;;;;9.30;8.50;;;;;;;25.45;59.74;94998.72;5010959;28;20214;-86
2023/09/12 07:16:36;;;;;;;10.13;8.48;;;;;;;25.69;59.43;94967.03;5010264;28;20273;-86
2023/09/12 07:19:04;;;;;;;10.43;8.40;;;;;;;25.78;59.36;94978.53;5038205;28;20232;-86
2023/09/12 07:21:32;;;;;;;10.60;8.40;;;;;;;25.94;58.71;94960.59;5050343;28;20258;-86
2023/09/12 07:23:58;;;;;;;13.55;8.52;;;;;;;26.12;58.02;94939.47;5050195;28;20201;-86
2023/09/12 07:26:25;;;;;;;8.38;7.68;;;;;;;26.30;57.13;94914.09;5033734;28;20221;-85
2023/09/12 07:28:52;;;;;;;9.25;8.27;;;;;;;26.39;57.02;94893.84;5028671;28;20675;-85
2023/09/12 07:31:19;;;;;;;9.05;8.00;;;;;;;26.49;56.77;94872.56;5010770;28;20571;-86
2023/09/12 07:33:45;;;;;;;8.93;7.97;;;;;;;26.66;56.53;94866.66;5016499;28;20579;-86
2023/09/12 07:36:13;;;;;;;11.80;8.30;;;;;;;26.87;56.46;94856.47;5046619;28;20622;-86
2023/09/12 07:38:41;;;;;;;9.93;8.05;;;;;;;26.99;55.95;94837.47;5050314;28;20193;-86
2023/09/12 07:41:08;;;;;;;9.05;8.02;;;;;;;27.12;55.14;94791.75;5050429;28;20718;-86
2023/09/12 07:43:37;;;;;;;9.35;8.18;;;;;;;27.05;55.45;94815.16;5035525;28;20194;-86
2023/09/12 07:46:05;;;;;;;9.75;7.45;;;;;;;27.24;54.19;94768.19;5030328;28;20604;-85
2023/09/12 07:48:32;;;;;;;14.15;7.53;;;;;;;27.37;53.12;94725.03;5030120;28;20236;-83
2023/09/12 07:51:00;;;;;;;8.27;7.47;;;;;;;27.58;52.68;94708.66;5040169;28;20201;-83
2023/09/12 07:53:26;;;;;;;8.68;7.80;;;;;;;27.76;52.66;94683.84;5049639;28;20221;-83
2023/09/12 07:55:54;;;;;;;11.32;7.63;;;;;;;27.88;51.82;94662.09;5049835;28;20206;-83
2023/09/12 07:58:21;;;;;;;10.05;7.88;;;;;;;28.01;52.65;94685.00;5041278;28;20198;-83
2023/09/12 08:00:48;;;;;;;14.95;7.72;;;;;;;27.96;51.66;94645.44;5024828;28;20206;-83
2023/09/12 08:03:16;;;;;;;11.00;8.07;;;;;;;28.00;51.86;94641.88;5026230;28;20190;-83
2023/09/12 08:05:42;;;;;;;9.95;8.15;;;;;;;28.23;51.21;94641.78;5028518;28;20209;-83
2023/09/12 08:08:09;;;;;;;9.85;7.55;;;;;;;28.43;50.82;94609.41;5049240;28;20385;-83
2023/09/12 08:10:35;;;;;;;8.07;7.40;;;;;;;28.67;50.41;94606.25;5049757;28;20204;-83
2023/09/12 08:13:02;;;;;;;7.35;6.75;;;;;;;28.87;50.08;94563.97;5049542;28;20244;-83
2023/09/12 08:15:28;;;;;;;7.95;7.20;;;;;;;29.07;49.36;94551.91;5049639;28;20670;-83
2023/09/12 08:17:55;;;;;;;9.65;7.43;;;;;;;29.25;48.74;94507.53;5048883;28;20221;-83
2023/09/12 08:20:23;;;;;;;9.23;7.70;;;;;;;29.38;48.71;94517.16;5049705;28;20602;-83
2023/09/12 08:22:49;;;;;;;8.23;7.43;;;;;;;29.37;47.88;94464.41;5045577;28;20194;-83
2023/09/12 08:25:18;;;;;;;7.82;7.22;;;;;;;29.39;48.66;94502.00;5039181;28;20203;-83
2023/09/12 08:27:44;;;;;;;8.02;7.28;;;;;;;29.46;48.13;94470.47;5009549;28;20313;-83
2023/09/12 08:30:13;;;;;;;7.85;7.25;;;;;;;29.60;47.65;94464.91;5008966;28;20207;-82
2023/09/12 08:32:43;;;;;;;7.90;7.20;;;;;;;29.77;46.94;94431.06;5009241;28;20230;-83
2023/09/12 08:35:10;;;;;;;7.15;6.53;;;;;;;30.04;46.85;94434.25;5009558;28;20222;-83
2023/09/12 08:37:39;;;;;;;7.25;6.68;;;;;;;30.26;46.67;94406.56;5009231;28;20223;-83
2023/09/12 08:40:08;;;;;;;7.82;7.13;;;;;;;30.49;45.93;94360.66;5044838;28;20662;-83
2023/09/12 08:42:40;;;;;;;7.72;7.05;;;;;;;30.50;44.84;94321.59;5042113;28;20192;-83
2023/09/12 08:45:09;;;;;;;7.70;7.00;;;;;;;30.57;44.44;94313.88;5029598;28;20237;-83
2023/09/12 08:47:38;;;;;;;7.75;7.15;;;;;;;30.74;44.98;94326.91;5029261;28;20230;-83
2023/09/12 08:50:06;;;;;;;7.55;6.95;;;;;;;30.82;44.15;94304.72;5029018;28;20205;-83
2023/09/12 08:52:32;;;;;;;8.43;7.57;;;;;;;31.01;44.67;94317.44;5028539;28;20222;-83
2023/09/12 08:55:00;;;;;;;7.95;7.22;;;;;;;31.08;44.15;94296.38;5032875;28;20663;-83
2023/09/12 08:57:27;;;;;;;8.90;7.28;;;;;;;31.13;43.82;94274.91;5031236;28;20872;-85
2023/09/12 08:59:55;;;;;;;7.57;6.72;;;;;;;31.17;43.88;94291.72;5028822;28;20198;-84
2023/09/12 09:02:22;;;;;;;8.50;7.28;;;;;;;31.14;43.70;94273.78;5028685;28;20198;-84
2023/09/12 09:04:51;;;;;;;7.70;7.03;;;;;;;31.11;43.67;94289.63;5028256;28;20723;-84
2023/09/12 09:07:19;;;;;;;8.07;7.03;;;;;;;31.09;44.90;94327.16;5028533;28;20230;-84
2023/09/12 09:09:47;;;;;;;7.82;7.13;;;;;;;31.28;44.26;94318.59;5028765;28;20214;-84
2023/09/12 09:12:15;;;;;;;7.90;7.30;;;;;;;31.51;43.50;94301.00;5042959;28;20231;-84
2023/09/12 09:14:41;;;;;;;8.35;7.43;;;;;;;31.74;43.85;94292.50;5048314;28;20201;-83
2023/09/12 09:17:10;;;;;;;7.93;7.32;;;;;;;31.95;42.93;94255.72;5047899;28;20218;-83
2023/09/12 09:19:45;;;;;;;8.93;7.43;;;;;;;32.02;41.99;94205.31;5048336;28;20267;-83
2023/09/12 09:22:12;;;;;;;8.07;7.30;;;;;;;31.92;42.43;94198.63;5039698;28;20595;-83
2023/09/12 09:24:38;;;;;;;7.95;7.15;;;;;;;31.86;41.36;94154.75;5016436;28;20260;-83
2023/09/12 09:27:05;;;;;;;7.68;6.97;;;;;;;31.99;42.37;94199.88;5021198;28;20733;-84
2023/09/12 09:29:33;;;;;;;7.32;6.82;;;;;;;32.10;41.26;94164.41;5048457;28;20648;-83
2023/09/12 09:32:01;;;;;;;7.70;6.82;;;;;;;32.18;41.55;94154.66;5048167;28;20256;-83
2023/09/12 09:34:29;;;;;;;8.07;7.35;;;;;;;32.21;41.64;94170.75;5047775;28;20222;-84
2023/09/12 09:36:57;;;;;;;7.10;6.60;;;;;;;32.27;41.54;94160.63;5048394;28;20222;-83
2023/09/12 09:39:25;;;;;;;7.60;6.97;;;;;;;32.30;41.83;94183.91;5047991;28;20197;-84
2023/09/12 09:41:52;;;;;;;7.90;7.15;;;;;;;32.31;41.99;94209.41;5050636;28;20202;-84
2023/09/12 09:44:23;;;;;;;8.77;7.78;;;;;;;32.25;41.58;94144.19;5045577;28;20662;-83
2023/09/12 09:46:56;;;;;;;8.27;7.40;;;;;;;32.05;41.72;94171.88;5051917;28;20255;-84
2023/09/12 09:49:22;;;;;;;7.72;7.13;;;;;;;31.73;40.88;94126.69;5052263;28;20197;-84
2023/09/12 09:51:49;;;;;;;7.97;7.28;;;;;;;31.51;41.77;94165.28;5045977;28;20202;-84
2023/09/12 09:54:16;;;;;;;8.63;7.88;;;;;;;31.41;43.22;94220.88;5023728;28;20218;-83
2023/09/12 09:56:47;;;;;;;7.43;6.78;;;;;;;31.24;41.93;94169.56;5032365;28;20714;-84
2023/09/12 09:59:16;;;;;;;7.05;6.53;;;;;;;31.25;41.87;94176.41;5036020;28;20279;-84
2023/09/12 10:01:44;;;;;;;8.93;7.22;;;;;;;31.27;41.71;94164.66;5052165;28;20217;-83
2023/09/12 10:04:12;;;;;;;7.63;6.95;;;;;;;31.08;40.98;94107.56;5051740;28;20205;-84
2023/09/12 10:06:39;;;;;;;8.30;7.15;;;;;;;30.88;41.09;94116.56;5051741;28;20225;-83
2023/09/12 10:09:10;;;;;;;7.70;6.90;;;;;;;30.94;41.00;94104.56;5044517;28;20281;-83
2023/09/12 10:11:38;;;;;;;6.65;6.10;;;;;;;30.98;40.63;94070.88;5031968;28;20198;-84
2023/09/12 10:14:06;;;;;;;6.28;5.68;;;;;;;31.12;39.84;94039.34;5031043;28;20232;-84
2023/09/12 10:16:34;;;;;;;8.13;6.65;;;;;;;31.25;39.95;94029.38;5045202;28;20225;-83
2023/09/12 10:19:10;;;;;;;7.07;6.38;;;;;;;31.30;40.18;94053.03;5039884;28;20201;-83
2023/09/12 10:21:47;;;;;;;7.35;6.65;;;;;;;31.36;41.12;94106.78;5033446;28;20197;-83
2023/09/12 10:24:15;;;;;;;6.70;6.25;;;;;;;31.13;40.50;94064.03;5032031;28;20197;-84
2023/09/12 10:26:45;;;;;;;6.95;6.35;;;;;;;31.09;40.41;94082.53;5031620;28;20907;-84
2023/09/12 10:29:15;;;;;;;7.18;6.50;;;;;;;31.08;40.76;94085.53;5032247;28;20206;-83
2023/09/12 10:31:41;;;;;;;7.70;7.10;;;;;;;30.78;40.89;94103.75;5036997;28;20285;-83
2023/09/12 10:34:09;;;;;;;7.68;7.07;;;;;;;30.80;41.42;94118.22;5051273;28;20225;-83
2023/09/12 10:36:39;;;;;;;7.90;7.28;;;;;;;30.71;41.63;94135.47;5051646;28;20605;-83
2023/09/12 10:39:07;;;;;;;7.40;6.70;;;;;;;30.87;42.03;94157.53;5051672;28;20205;-83
2023/09/12 10:41:34;;;;;;;7.80;7.10;;;;;;;30.95;41.30;94111.44;5051360;28;20682;-84
2023/09/12 10:44:02;;;;;;;7.22;6.63;;;;;;;30.83;40.92;94098.19;5033433;28;20277;-84
2023/09/12 10:46:29;;;;;;;7.28;6.55;;;;;;;30.62;41.91;94117.00;5031314;28;20226;-84
2023/09/12 10:48:55;;;;;;;7.03;6.43;;;;;;;30.51;41.98;94147.78;5039288;28;20570;-84
2023/09/12 10:51:22;;;;;;;7.85;7.15;;;;;;;30.53;42.70;94180.88;5024681;28;20198;-84
2023/09/12 10:53:52;;;;;;;7.40;6.88;;;;;;;30.67;42.40;94153.97;5011238;28;20226;-83
2023/09/12 10:56:20;;;;;;;7.10;6.50;;;;;;;30.64;41.59;94098.06;5024006;28;20218;-83
2023/09/12 10:59:14;;;;;;;7.45;6.78;;;;;;;30.53;42.01;94124.31;5030986;28;20198;-84
2023/09/12 11:01:45;;;;;;;7.40;6.65;;;;;;;30.40;41.75;94114.84;5031370;28;20424;-83
2023/09/12 11:04:33;;;;;;;7.35;6.78;;;;;;;30.51;42.00;94140.59;5037482;28;20201;-84
2023/09/12 11:06:59;;;;;;;7.45;6.85;;;;;;;30.48;41.70;94109.38;5051343;28;20237;-84
2023/09/12 11:09:28;;;;;;;7.13;6.43;;;;;;;30.40;41.23;94114.84;5040497;28;20570;-84
2023/09/12 11:11:57;;;;;;;6.63;6.13;;;;;;;30.46;42.30;94148.78;5031457;28;20208;-83
2023/09/12 11:14:26;;;;;;;7.00;6.40;;;;;;;30.53;42.13;94151.66;5031205;28;20264;-83
2023/09/12 11:17:23;;;;;;;7.50;6.65;;;;;;;30.71;41.94;94136.22;5009350;28;20666;-83
2023/09/12 11:19:52;;;;;;;6.68;6.18;;;;;;;30.81;41.25;94087.13;5033239;28;20255;-84
2023/09/12 11:22:26;;;;;;;8.20;6.50;;;;;;;30.85;40.93;94078.13;5050832;28;20275;-84
2023/09/12 11:24:55;;;;;;;6.85;6.25;;;;;;;30.73;40.17;94048.97;5046170;28;20222;-84
2023/09/12 11:27:22;;;;;;;7.10;6.50;;;;;;;30.68;40.95;94061.72;5030953;28;20214;-84
2023/09/12 11:29:49;;;;;;;6.80;6.25;;;;;;;30.52;40.81;94075.72;5030517;28;20206;-84
2023/09/12 11:32:32;;;;;;;6.82;6.30;;;;;;;30.61;41.00;94102.16;5030803;28;20202;-84
2023/09/12 11:35:00;;;;;;;6.40;5.80;;;;;;;30.71;39.85;94034.47;5030715;28;20225;-83